Terminal Aerodrome Forecast
Issued by NWS

Home | Current Version | Previous Version | Text Only | Print | Product List | Glossary On
Versions: 1 2 3 4 5 6 7 8 9 10 11 12 13 14 15
000
FTUS45 KREV 241100
TAFTRK
TAF
KTRK 241120Z 2412/2512 VRB03KT P6SM SCT100 BKN180
     FM241900 23015G30KT P6SM SCT080 BKN150
     FM250200 22011G19KT P6SM VCSH SCT030 BKN050 WS020/25040KT
     FM250600 20008KT 5SM -RASN OVC015 WS020/25040KT=

USA.gov is the U.S. government's official web portal to all federal, state and local government web resources and services.